Lincoln, Kansas
Current Conditions -  °F | °C
As of 1:53 AM on Friday 24 Oct 2014 (Local Time) from KSLN Reporting Station
Haze Haze  
Wind Chill: 59°   Ceiling: Unl
Heat Index: 59°   Visibility: 4mi
Dew Point: 57°   Wind: 7mph
Humidity: 93%   Direction: 180°S
Pressure: 30.05"   Gusts: NA
Location:  39.04°N, 98.15°W
Report Text: KSLN 240653Z AUTO 18006KT 4SM BR CLR 15/14 A3005 RMK AO2 SLP166 T01500139
Loading
Personal Weather Stations






























Interactive Weather Map
Tropical Storm Tracking
New forecast layout! Learn more

10-Day Weather Forecast

Advertisements
Track Severe Weather on mobile